Hot Springs Natl Park, Arkansas
Current Conditions -  °F | °C
As of 11:53 AM on Thursday 30 Oct 2014 (Local Time) from KHOT Reporting Station
Clear Clear  
Wind Chill: 66°   Ceiling: Unl
Heat Index: 66°   Visibility: 10mi
Dew Point: 47°   Wind: 0mph
Humidity: 50%   Direction: NA
Pressure: 30.16"   Gusts: NA
Location:  34.5°N, 93.05°W
Report Text: KHOT 301653Z AUTO 00000KT 10SM CLR 19/08 A3016 RMK AO2 SLP209 T01890083
Loading
Personal Weather Stations






























Interactive Weather Map
Tropical Storm Tracking
New forecast layout! Learn more

10-Day Weather Forecast

Advertisements
Track Severe Weather on mobile